Latest Weather Observations for Minlaton Airport

IDS60801

Issued at 10:35 pm CDT Sunday 23 November 2014 (issued every 30 minutes, with the page automatically refreshed every 10 minutes)

About weather observations | Map of weather stations | Latest weather observations for SA | Other Formats
Station Details ID: 022031 Name: MINLATON AERO Lat: -34.75 Lon: 137.53 Height: 32.0 m
Data from the previous 72 hours. | See also: Recent months at Minlaton Airport
Date/Time
CDT
Temp
°C
App
Temp
°C
Dew
Point
Rel
Hum
%
Delta-T
°C
Wind Press
QNH
hPa
Press
MSL
hPa
Rain
since 9 am
mm
Dir
 
Spd
km/h
Gust
km/h
Spd
kts
Gust
kts
23/10:30pm 18.1 14.2 13.4 74 2.7 SSE 26 32 14 17 1008.4 1008.3 0.0
23/10:00pm 18.3 14.0 10.9 62 4.0 SSE 24 30 13 16 1008.9 1008.8 0.0
23/09:30pm 18.9 14.6 9.4 54 5.0 SSE 22 28 12 15 1008.6 1008.5 0.0
23/09:00pm 19.0 15.1 9.5 54 5.0 SSE 20 28 11 15 1008.8 1008.7 0.0
23/08:30pm 19.5 15.6 8.5 49 5.7 SSE 19 20 10 11 1009.3 1009.2 0.0
23/08:00pm 21.5 17.2 7.0 39 7.4 SSE 19 22 10 12 1009.2 1009.1 0.0
23/07:30pm 23.3 18.2 6.1 33 8.8 SE 22 28 12 15 1008.7 1008.6 0.0
23/07:00pm 24.5 19.2 6.7 32 9.3 SSE 24 30 13 16 1008.3 1008.2 0.0
23/06:30pm 25.0 19.9 7.6 33 9.2 SE 24 30 13 16 1007.9 1007.8 0.0
23/06:00pm 26.0 21.7 9.4 35 9.1 SE 22 28 12 15 1008.4 1008.3 0.0
23/05:30pm 26.7 23.4 9.5 34 9.5 SE 17 24 9 13 1008.5 1008.4 0.0
23/05:00pm 26.6 24.3 10.3 36 9.1 SE 13 19 7 10 1009.5 1009.4 0.0
23/04:30pm 26.6 23.4 8.6 32 9.8 S 15 20 8 11 1009.4 1009.3 0.0
23/04:00pm 26.2 23.4 6.8 29 10.2 SW 11 15 6 8 1010.2 1010.1 0.0
23/03:30pm 25.4 21.9 7.1 31 9.6 WSW 15 20 8 11 1010.9 1010.8 0.0
23/03:00pm 26.6 24.0 4.4 24 11.2 W 7 13 4 7 1011.0 1010.9 0.0
23/02:30pm 25.6 21.3 7.7 32 9.5 NW 20 28 11 15 1012.1 1012.0 0.0
23/02:00pm 26.4 22.1 6.9 29 10.3 NW 19 24 10 13 1012.2 1012.1 0.0
23/01:30pm 26.4 22.7 6.4 28 10.5 W 15 19 8 10 1011.5 1011.4 0.0
23/01:00pm 26.0 22.5 7.1 30 10.0 SW 15 22 8 12 1011.9 1011.8 0.0
23/12:30pm 25.2 20.9 7.8 33 9.3 SW 20 28 11 15 1011.8 1011.7 0.0
23/12:00pm 23.0 20.7 12.9 53 5.8 W 17 20 9 11 1012.7 1012.6 0.0
23/11:30am 22.8 20.2 13.3 55 5.5 W 19 24 10 13 1012.7 1012.6 0.0
23/11:00am 22.4 20.2 13.2 56 5.3 WSW 17 22 9 12 1012.3 1012.2 0.0
23/10:30am 22.7 22.2 12.0 50 6.0 S 6 9 3 5 1012.2 1012.1 0.0
23/10:00am 21.2 20.4 11.8 55 5.3 NW 7 11 4 6 1012.6 1012.5 0.0
23/09:30am 19.9 20.1 12.9 64 4.0 SW 4 9 2 5 1012.5 1012.4 0.0
23/09:00am 19.3 18.2 13.2 68 3.5 ESE 11 17 6 9 1012.2 1012.1 2.6
23/08:30am 18.1 16.1 13.8 76 2.5 ESE 17 20 9 11 1012.0 1011.9 2.6
23/08:00am 16.9 16.0 13.6 81 1.9 ESE 11 15 6 8 1011.9 1011.8 2.6
23/07:30am 14.8 13.1 12.5 86 1.3 E 13 15 7 8 1012.1 1012.0 2.6
23/07:00am 13.0 10.7 11.6 91 0.7 E 15 17 8 9 1012.3 1012.2 2.6
23/06:30am 11.2 8.4 10.1 93 0.6 E 15 17 8 9 1012.0 1011.9 2.6
23/06:00am 10.9 8.0 9.8 93 0.6 ENE 15 15 8 8 1012.2 1012.1 2.6
23/05:30am 10.9 8.1 10.0 94 0.5 ENE 15 17 8 9 1012.3 1012.2 2.6
23/05:00am 10.7 9.0 9.8 94 0.5 E 9 11 5 6 1012.1 1012.0 2.6
23/04:30am 10.2 8.7 9.0 92 0.6 SSE 7 7 4 4 1012.0 1011.9 2.6
23/04:00am 11.2 9.9 9.8 91 0.7 E 7 9 4 5 1012.1 1012.0 2.6
23/03:30am 11.1 9.1 10.2 94 0.5 ESE 11 13 6 7 1012.0 1011.9 2.6
23/03:00am 11.5 10.3 10.2 92 0.7 S 7 9 4 5 1012.0 1011.9 2.6
23/02:30am 12.0 10.1 10.6 91 0.7 SE 11 13 6 7 1012.1 1012.0 2.6
23/02:00am 12.7 10.2 11.1 90 0.8 ESE 15 15 8 8 1012.2 1012.1 2.6
23/01:30am 13.4 11.1 11.8 90 0.9 SE 15 19 8 10 1012.4 1012.3 2.6
23/01:00am 12.1 10.3 10.7 91 0.7 ESE 11 13 6 7 1012.5 1012.4 2.6
23/12:30am 12.6 11.2 11.0 90 0.8 SSE 9 11 5 6 1012.9 1012.8 2.6
23/12:00am 12.5 10.7 10.7 89 0.9 SSE 11 13 6 7 1012.9 1012.8 2.6
 
Date/Time
CDT
Temp
°C
App
Temp
°C
Dew
Point
Rel
Hum
%
Delta-T
°C
Wind Press
QNH
hPa
Press
MSL
hPa
Rain
since 9 am
mm
Dir
 
Spd
km/h
Gust
km/h
Spd
kts
Gust
kts
22/11:30pm 13.3 11.3 11.4 88 1.0 SSE 13 15 7 8 1013.0 1012.9 2.6
22/11:00pm 13.4 10.9 11.1 86 1.2 SSE 15 17 8 9 1012.8 1012.7 2.6
22/10:30pm 13.9 11.2 10.5 80 1.8 S 15 19 8 10 1012.8 1012.7 2.6
22/10:00pm 15.3 12.5 11.3 77 2.1 SSW 17 22 9 12 1012.6 1012.5 2.4
22/09:30pm 15.7 13.4 10.5 71 2.8 SSW 13 17 7 9 1012.0 1011.9 2.4
22/09:00pm 16.2 12.7 10.1 67 3.2 SSW 19 26 10 14 1011.4 1011.3 2.4
22/08:30pm 17.5 13.9 10.6 64 3.7 S 20 26 11 14 1011.1 1011.0 2.4
22/08:00pm 18.7 15.2 11.0 61 4.2 S 20 30 11 16 1010.6 1010.5 2.4
22/07:30pm 20.3 15.8 11.5 57 4.9 SSW 26 35 14 19 1010.0 1009.9 2.4
22/07:00pm 21.8 16.9 11.2 51 5.9 SSW 28 35 15 19 1009.3 1009.2 2.4
22/06:30pm 22.5 17.8 13.3 56 5.3 WSW 30 37 16 20 1008.5 1008.4 2.4
22/06:00pm 23.3 18.1 12.9 52 6.0 WSW 32 39 17 21 1008.3 1008.2 2.4
22/05:30pm 23.3 18.8 13.8 55 5.6 WSW 30 41 16 22 1008.1 1008.0 2.4
22/05:00pm 23.6 19.8 14.6 57 5.3 W 28 35 15 19 1007.8 1007.7 2.4
22/04:30pm 23.3 19.8 15.6 62 4.6 W 28 33 15 18 1007.7 1007.6 2.4
22/04:00pm 23.2 20.0 15.3 61 4.7 W 26 32 14 17 1007.4 1007.3 2.4
22/03:30pm 23.1 19.9 15.2 61 4.7 WSW 26 35 14 19 1007.3 1007.2 2.4
22/03:00pm 22.9 20.3 17.8 73 3.2 WSW 28 33 15 18 1007.4 1007.3 2.4
22/02:30pm 21.8 19.4 17.4 76 2.7 WSW 26 35 14 19 1007.1 1007.0 2.4
22/02:00pm 20.6 20.9 17.0 80 2.2 WNW 11 22 6 12 1008.2 1008.1 2.2
22/01:30pm 23.1 22.2 14.9 60 4.9 W 13 19 7 10 1007.3 1007.2 2.2
22/01:00pm 20.7 19.9 17.1 80 2.2 NW 17 24 9 13 1008.5 1008.4 2.2
22/12:30pm 21.8 22.8 17.8 78 2.5 NW 9 15 5 8 1007.7 1007.6 2.2
22/12:00pm 23.2 23.3 18.3 74 3.1 W 15 17 8 9 1007.2 1007.1 1.8
22/11:30am 22.6 23.7 18.8 79 2.4 N 11 17 6 9 1006.8 1006.7 1.4
22/11:00am 21.7 20.5 18.5 82 2.0 N 22 32 12 17 1006.5 1006.4 0.6
22/10:30am 20.7 19.3 16.9 79 2.3 NNE 20 26 11 14 1007.0 1006.9 0.6
22/10:00am 19.4 18.3 17.7 90 1.0 NNE 20 24 11 13 1007.6 1007.5 0.6
22/09:48am 19.3 19.6 17.1 87 1.3 W 11 22 6 12 1008.8 1008.7 0.4
22/09:30am 19.4 19.2 16.8 85 1.6 N 13 19 7 10 1006.8 1006.7 0.4
22/09:00am 17.6 16.9 16.5 93 0.7 N 15 17 8 9 1007.9 1007.8 5.6
22/08:30am 18.0 16.8 16.0 88 1.2 ENE 17 26 9 14 1007.1 1007.0 2.6
22/08:11am 17.9 17.0 14.8 82 1.8 SW 13 17 7 9 1007.2 1007.1 2.0
22/08:00am 18.2 17.0 16.2 88 1.2 WNW 17 20 9 11 1009.2 1009.1 1.4
22/07:30am 19.0 16.3 15.7 81 2.0 W 24 30 13 16 1008.2 1008.1 0.6
22/07:00am 18.4 17.8 15.6 84 1.7 NW 13 15 7 8 1007.0 1006.9 0.6
22/06:30am 19.0 16.4 13.8 72 3.0 NW 20 28 11 15 1007.1 1007.0 0.6
22/06:23am 20.3 16.5 11.2 56 5.0 NW 22 28 12 15 1007.4 1007.3 0.0
22/06:00am 21.4 16.7 9.3 46 6.5 N 24 32 13 17 1005.4 1005.3 0.0
22/05:30am 22.4 15.0 8.5 41 7.4 N 37 50 20 27 1004.8 1004.7 0.0
22/05:06am 23.6 15.9 8.8 39 7.9 N 39 57 21 31 1004.9 1004.8 0.0
22/05:00am 23.4 16.9 9.0 40 7.7 N 33 46 18 25 1005.2 1005.1 0.0
22/04:58am 23.4 17.1 9.0 40 7.7 N 32 46 17 25 1005.4 1005.3 0.0
22/04:30am 23.8 18.7 4.2 28 9.7 N 20 26 11 14 1005.4 1005.3 0.0
22/04:00am 23.9 18.0 3.8 27 9.9 NNE 24 30 13 16 1004.4 1004.3 0.0
22/03:30am 24.1 16.0 3.4 26 10.1 NE 35 44 19 24 1004.1 1004.0 0.0
22/03:00am 23.8 15.8 3.7 27 9.9 NE 35 46 19 25 1004.4 1004.3 0.0
22/02:30am 22.6 15.1 4.6 31 8.9 NE 33 44 18 24 1004.8 1004.7 0.0
22/02:00am 22.1 14.8 7.1 38 7.7 NE 35 44 19 24 1004.9 1004.8 0.0
22/01:30am 21.6 14.8 7.8 41 7.2 NE 33 41 18 22 1005.6 1005.5 0.0
22/01:00am 20.8 15.0 7.8 43 6.7 NE 28 35 15 19 1006.2 1006.1 0.0
22/12:30am 20.9 14.8 8.2 44 6.7 ENE 30 37 16 20 1006.2 1006.1 0.0
22/12:00am 20.8 14.5 9.1 47 6.2 ENE 32 35 17 19 1006.8 1006.7 0.0
 
Date/Time
CDT
Temp
°C
App
Temp
°C
Dew
Point
Rel
Hum
%
Delta-T
°C
Wind Press
QNH
hPa
Press
MSL
hPa
Rain
since 9 am
mm
Dir
 
Spd
km/h
Gust
km/h
Spd
kts
Gust
kts
21/11:30pm 20.5 15.2 9.7 50 5.8 ENE 28 33 15 18 1007.6 1007.5 0.0
21/11:00pm 20.0 15.0 11.0 56 4.9 ENE 28 33 15 18 1008.2 1008.1 0.0
21/10:30pm 20.2 15.6 10.9 55 5.1 ENE 26 32 14 17 1008.6 1008.5 0.0
21/10:00pm 19.2 15.1 11.3 60 4.3 ENE 24 32 13 17 1008.8 1008.7 0.0
21/09:30pm 19.3 15.3 10.3 56 4.9 E 22 28 12 15 1009.0 1008.9 0.0
21/09:00pm 19.6 15.5 10.0 54 5.2 E 22 28 12 15 1009.2 1009.1 0.0
21/08:30pm 20.7 16.1 9.6 49 6.0 E 24 30 13 16 1009.1 1009.0 0.0
21/08:00pm 22.9 18.7 9.7 43 7.2 E 22 28 12 15 1009.2 1009.1 0.0
21/07:30pm 25.1 20.6 -0.1 19 11.6 E 13 15 7 8 1009.3 1009.2 0.0
21/07:00pm 25.3 22.7 -1.5 17 12.0 NE 2 7 1 4 1009.5 1009.4 0.0
21/06:30pm 25.5 22.3 -0.5 18 11.9 WNW 6 9 3 5 1009.7 1009.6 0.0
21/06:00pm 24.9 21.6 0.4 20 11.4 NNW 7 11 4 6 1009.9 1009.8 0.0
21/05:30pm 24.7 21.3 -0.4 19 11.5 W 7 9 4 5 1010.1 1010.0 0.0
21/05:00pm 23.7 20.2 3.6 27 9.8 WNW 11 15 6 8 1010.4 1010.3 0.0
21/04:30pm 23.2 19.5 4.2 29 9.4 WNW 13 17 7 9 1010.5 1010.4 0.0
21/04:00pm 23.9 19.9 4.8 29 9.5 WNW 15 20 8 11 1010.8 1010.7 0.0
21/03:30pm 25.0 21.4 5.2 28 10.0 W 13 19 7 10 1011.0 1010.9 0.0
21/03:00pm 23.5 19.9 6.7 34 8.7 WNW 15 24 8 13 1011.4 1011.3 0.0
21/02:30pm 22.7 19.0 8.0 39 7.7 WNW 17 22 9 12 1011.7 1011.6 0.0
21/02:00pm 22.1 17.9 7.5 39 7.6 WNW 19 35 10 19 1012.0 1011.9 0.0
21/01:30pm 21.4 18.4 7.6 41 7.2 NW 13 22 7 12 1012.3 1012.2 0.0
21/01:00pm 21.5 17.8 10.0 48 6.2 NW 20 30 11 16 1012.8 1012.7 0.0
21/12:30pm 21.0 17.5 10.8 52 5.6 NW 20 28 11 15 1013.1 1013.0 0.0
21/12:00pm 21.0 17.6 11.3 54 5.4 NW 20 28 11 15 1013.2 1013.1 0.0
21/11:30am 20.2 17.0 11.4 57 4.9 NW 19 26 10 14 1013.4 1013.3 0.0
21/11:00am 19.4 16.0 11.2 59 4.5 NW 20 30 11 16 1013.5 1013.4 0.0
21/10:30am 19.7 16.1 10.7 56 4.9 NW 20 28 11 15 1013.5 1013.4 0.0
21/10:00am 19.7 17.2 11.2 58 4.7 NW 15 20 8 11 1013.5 1013.4 0.0
21/09:30am 18.1 15.4 10.2 60 4.2 WNW 15 20 8 11 1013.5 1013.4 0.0
21/09:00am 18.4 16.2 10.7 61 4.2 NW 13 24 7 13 1013.3 1013.2 0.2
21/08:30am 17.5 15.6 10.4 63 3.8 WNW 11 17 6 9 1013.1 1013.0 0.2
21/08:00am 16.9 16.2 10.1 64 3.6 NNW 4 9 2 5 1012.9 1012.8 0.2
21/07:30am 15.3 13.6 9.9 70 2.8 ENE 9 11 5 6 1012.4 1012.3 0.2
21/07:00am 13.2 11.1 9.6 79 1.8 E 11 11 6 6 1012.5 1012.4 0.2
21/06:30am 10.1 8.2 7.7 85 1.2 ESE 7 9 4 5 1012.4 1012.3 0.2
21/06:00am 10.3 8.6 7.4 82 1.4 S 6 7 3 4 1012.2 1012.1 0.2
21/05:30am 12.6 10.6 8.5 76 2.0 SSW 9 13 5 7 1011.9 1011.8 0.2
21/05:00am 14.5 11.6 9.7 73 2.5 SW 15 20 8 11 1012.0 1011.9 0.2
21/04:30am 14.8 12.7 9.8 72 2.6 SSW 11 17 6 9 1011.9 1011.8 0.2
21/04:00am 14.6 13.2 9.6 72 2.6 WNW 7 9 4 5 1011.8 1011.7 0.2
21/03:30am 14.9 13.1 9.5 70 2.8 W 9 11 5 6 1012.0 1011.9 0.2
21/03:00am 14.9 14.6 8.8 67 3.1 CALM 0 6 0 3 1012.0 1011.9 0.2
21/02:30am 15.0 13.0 8.7 66 3.2 SW 9 13 5 7 1012.2 1012.1 0.2
21/02:00am 15.4 12.0 9.1 66 3.2 WSW 17 20 9 11 1012.6 1012.5 0.2
21/01:30am 14.9 12.2 9.1 68 3.0 WSW 13 17 7 9 1012.7 1012.6 0.2
21/01:00am 14.4 11.4 9.4 72 2.6 SW 15 20 8 11 1012.8 1012.7 0.2
21/12:30am 15.3 11.6 10.1 71 2.7 SW 20 28 11 15 1012.6 1012.5 0.2
21/12:00am 14.8 11.6 10.0 73 2.5 SW 17 20 9 11 1012.7 1012.6 0.2
 
Date/Time
CDT
Temp
°C
App
Temp
°C
Dew
Point
Rel
Hum
%
Delta-T
°C
Wind Press
QNH
hPa
Press
MSL
hPa
Rain
since 9 am
mm
Dir
 
Spd
km/h
Gust
km/h
Spd
kts
Gust
kts
20/11:30pm 14.7 10.8 9.3 70 2.8 SW 20 24 11 13 1012.7 1012.6 0.2
20/11:00pm 16.0 12.2 9.9 67 3.2 SW 20 28 11 15 1012.5 1012.4 0.2

Other Formats:

Comma delimited format used in spreadsheet applications
http://www.bom.gov.au/fwo/IDS60801/IDS60801.95659.axf

JavaScript Object Notation format (JSON) in row-major order
http://www.bom.gov.au/fwo/IDS60801/IDS60801.95659.json